METAR Data
IDs: Format: Raw Decoded Include TAF

Data at: 1636 UTC 21 Sep 2018

KSYI 211615Z AUTO VRB04G10KT 10SM FEW011 SCT047 BKN090 23/21 A3015 RMK A01
KSYI 211555Z AUTO 13007KT 10SM SCT031 BKN037 OVC090 23/21 A3016 RMK A01
KSYI 211535Z AUTO 15004KT 10SM FEW028 BKN034 BKN039 23/20 A3016 RMK A01
KSYI 211515Z AUTO 16005G11KT 10SM BKN034 BKN040 BKN048 24/20 A3016 RMK A01
KSYI 211455Z AUTO 18005KT 10SM BKN034 BKN040 OVC049 23/21 A3015 RMK A01
KSYI 211435Z AUTO 16005KT 10SM SCT036 SCT044 BKN050 23/20 A3014 RMK A01
KSYI 211415Z AUTO 16006KT 10SM FEW045 SCT075 BKN100 23/20 A3014 RMK A01
KSYI 211355Z AUTO 16007G13KT 10SM FEW045 SCT065 BKN075 23/20 A3014 RMK A01
KSYI 211335Z AUTO 16006G13KT 10SM FEW043 SCT075 BKN120 23/21 A3014 RMK A01
KSYI 211315Z AUTO 17011G17KT 7SM FEW044 SCT060 BKN090 23/21 A3015 RMK A01
KSYI 211255Z AUTO 18011KT 10SM FEW041 SCT049 BKN080 24/20 A3014 RMK A01
KSYI 211235Z AUTO 18007KT 10SM FEW034 SCT041 BKN060 25/19 A3014 RMK A01
KSYI 211215Z AUTO 16006KT 10SM SCT034 BKN042 BKN055 25/19 A3013 RMK A01
KSYI 211155Z AUTO 16007KT 10SM FEW043 SCT060 BKN120 24/18 A3012 RMK A01
KSYI 211135Z AUTO 15005KT 10SM BKN055 BKN065 BKN120 24/18 A3012 RMK A01
KSYI 211115Z AUTO 15005KT 10SM FEW041 FEW050 BKN120 24/19 A3012 RMK A01
KSYI 211055Z AUTO 13006KT 10SM FEW041 SCT120 23/19 A3011 RMK A01
KSYI 211035Z AUTO 14003KT 10SM CLR 23/19 A3011 RMK A01
KSYI 211015Z AUTO 14004KT 10SM FEW110 24/19 A3010 RMK A01
KSYI 210955Z AUTO 14003KT 10SM BKN110 24/19 A3010 RMK A01
KSYI 210935Z AUTO 14004KT 10SM BKN090 25/19 A3009 RMK A01
KSYI 210915Z AUTO 00000KT 10SM FEW065 SCT080 OVC090 25/19 A3009 RMK A01
KSYI 210855Z AUTO 14004KT 10SM BKN065 BKN075 OVC090 25/19 A3009 RMK A01
KSYI 210835Z AUTO 00000KT 10SM SCT070 BKN075 OVC090 25/19 A3009 RMK A01
KSYI 210815Z AUTO 14004KT 10SM BKN065 OVC085 25/19 A3009 RMK A01
KSYI 210755Z AUTO 00000KT 10SM BKN065 BKN085 OVC120 24/19 A3009 RMK A01
KSYI 210735Z AUTO 16005KT 10SM BKN065 BKN085 OVC120 24/19 A3009 RMK A01
KSYI 210715Z AUTO 16003KT 10SM BKN065 BKN120 25/19 A3008 RMK A01
KSYI 210655Z AUTO 14004KT 10SM SCT110 25/19 A3008 RMK A01
KSYI 210635Z AUTO 15005KT 10SM FEW070 SCT110 25/19 A3008 RMK A01
KSYI 210615Z AUTO 14005KT 10SM FEW070 25/19 A3008 RMK A01
KSYI 210555Z AUTO 15005KT 10SM CLR 25/19 A3008 RMK A01
KSYI 210535Z AUTO 15006KT 10SM CLR 25/19 A3008 RMK A01
KSYI 210515Z AUTO 14006KT 10SM CLR 25/19 A3007 RMK A01
KSYI 210455Z AUTO 14006KT 10SM CLR 25/19 A3007 RMK A01
KSYI 210435Z AUTO 15006KT 10SM CLR 25/19 A3007 RMK A01
KSYI 210415Z AUTO 14006KT 10SM CLR 25/19 A3006 RMK A01
KSYI 210355Z AUTO 15005KT 10SM CLR 26/19 A3006 RMK A01
KSYI 210335Z AUTO 14006KT 10SM CLR 26/20 A3006 RMK A01
KSYI 210315Z AUTO 16005KT 10SM CLR 25/20 A3006 RMK A01
KSYI 210255Z AUTO 15004KT 10SM CLR 27/20 A3005 RMK A01
KSYI 210235Z AUTO 14006KT 10SM CLR 27/20 A3005 RMK A01
KSYI 210215Z AUTO 13007KT 10SM CLR 27/20 A3005 RMK A01
KSYI 210155Z AUTO 13006KT 10SM CLR 27/20 A3004 RMK A01
KSYI 210135Z AUTO 13005KT 10SM CLR 27/20 A3004 RMK A01
KSYI 210115Z AUTO 12006KT 10SM CLR 27/19 A3003 RMK A01
KSYI 210055Z AUTO 13005KT 10SM CLR 27/19 A3003 RMK A01
KSYI 210035Z AUTO 12004KT 10SM CLR 27/19 A3003 RMK A01
KSYI 210015Z AUTO 12004KT 10SM CLR 27/19 A3002 RMK A01
KSYI 202355Z AUTO 12003KT 10SM CLR 28/19 A3002 RMK A01
KSYI 202335Z AUTO 13004KT 10SM CLR 30/19 A3002 RMK A01
KSYI 202315Z AUTO 13004KT 10SM CLR 30/19 A3002 RMK A01
KSYI 202255Z AUTO 13004KT 10SM CLR 32/18 A3002 RMK A01
KSYI 202235Z AUTO 13007KT 10SM CLR 33/18 A3002 RMK A01
KSYI 202215Z AUTO 15004KT 10SM CLR 33/17 A3002 RMK A01
KSYI 202155Z AUTO 18006KT 10SM CLR 34/17 A3003 RMK A01
KSYI 202135Z AUTO 18007KT 150V210 10SM CLR 34/17 A3003 RMK A01
KSYI 202115Z AUTO VRB06KT 10SM CLR 34/17 A3003 RMK A01
KSYI 202055Z AUTO 14004G10KT 10SM CLR 34/17 A3003 RMK A01
KSYI 202035Z AUTO 15006KT 10SM CLR 34/16 A3003 RMK A01
KSYI 202015Z AUTO 14006KT 10SM CLR 34/17 A3004 RMK A01
KSYI 201955Z AUTO 13008KT 100V160 10SM FEW070 34/17 A3004 RMK A01
KSYI 201935Z AUTO 14011KT 10SM SCT070 34/18 A3005 RMK A01
KSYI 201915Z AUTO 18009KT 10SM CLR 34/18 A3005 RMK A01
KSYI 201855Z AUTO 16010KT 140V200 10SM CLR 34/18 A3006 RMK A01
KSYI 201835Z AUTO VRB04KT 10SM CLR 34/18 A3007 RMK A01
KSYI 201815Z AUTO 21005KT 10SM CLR 34/18 A3008 RMK A01
KSYI 201755Z AUTO 00000KT 10SM CLR 33/17 A3009 RMK A01
KSYI 201735Z AUTO 20007KT 10SM CLR 33/18 A3009 RMK A01
KSYI 201715Z AUTO 21007KT 10SM CLR 33/18 A3010 RMK A01
KSYI 201655Z AUTO 18008KT 10SM CLR 33/19 A3011 RMK A01
KSYI 201635Z AUTO 21009KT 10SM CLR 32/19 A3012 RMK A01
KSYI 201615Z AUTO 18005G10KT 10SM CLR 32/20 A3012 RMK A01
KSYI 201555Z AUTO 18006G12KT 10SM CLR 31/20 A3013 RMK A01
KSYI 201535Z AUTO 18009KT 10SM CLR 31/20 A3014 RMK A01
KSYI 201515Z AUTO VRB06KT 10SM CLR 30/21 A3013 RMK A01
KSYI 201455Z AUTO 19005KT 10SM CLR 30/20 A3013 RMK A01
KSYI 201435Z AUTO 20004KT 10SM CLR 29/21 A3013 RMK A01
KSYI 201415Z AUTO 00000KT 10SM CLR 28/21 A3012 RMK A01
KSYI 201355Z AUTO 00000KT 10SM CLR 27/21 A3012 RMK A01
KSYI 201335Z AUTO 00000KT 10SM CLR 25/21 A3011 RMK A01
KSYI 201315Z AUTO 00000KT 10SM CLR 24/20 A3011 RMK A01
KSYI 201255Z AUTO 10003KT 10SM CLR 23/20 A3011 RMK A01
KSYI 201235Z AUTO 00000KT 10SM CLR 22/20 A3010 RMK A01
KSYI 201215Z AUTO 00000KT 10SM CLR 21/19 A3009 RMK A01
KSYI 201155Z AUTO 10004KT 10SM CLR 20/19 A3009 RMK A01
KSYI 201135Z AUTO 10004KT 10SM CLR 20/19 A3008 RMK A01
KSYI 201115Z AUTO 09004KT 10SM CLR 20/19 A3007 RMK A01
KSYI 201055Z AUTO 10004KT 10SM CLR 20/19 A3007 RMK A01
KSYI 201035Z AUTO 10004KT 10SM CLR 20/19 A3006 RMK A01
KSYI 201015Z AUTO 10003KT 10SM CLR 20/19 A3005 RMK A01
KSYI 200955Z AUTO 11003KT 10SM CLR 20/19 A3005 RMK A01
KSYI 200935Z AUTO 04003KT 10SM CLR 20/19 A3005 RMK A01
KSYI 200915Z AUTO 00000KT 10SM CLR 19/19 A3004 RMK A01
KSYI 200855Z AUTO 00000KT 10SM CLR 20/19 A3004 RMK A01
KSYI 200835Z AUTO 00000KT 10SM CLR 21/19 A3004 RMK A01
KSYI 200815Z AUTO 00000KT 10SM CLR 20/19 A3003 RMK A01
KSYI 200755Z AUTO 13003KT 10SM CLR 21/19 A3003 RMK A01
KSYI 200735Z AUTO 12003KT 10SM CLR 21/19 A3003 RMK A01
KSYI 200715Z AUTO 11003KT 10SM CLR 21/20 A3003 RMK A01
KSYI 200655Z AUTO 00000KT 10SM CLR 21/20 A3003 RMK A01
KSYI 200635Z AUTO 00000KT 10SM CLR 21/20 A3003 RMK A01
KSYI 200615Z AUTO 00000KT 10SM CLR 21/20 A3003 RMK A01
KSYI 200555Z AUTO 00000KT 10SM CLR 21/20 A3004 RMK A01
KSYI 200535Z AUTO 00000KT 10SM CLR 22/20 A3004 RMK A01
KSYI 200515Z AUTO 00000KT 10SM CLR 22/20 A3003 RMK A01
KSYI 200455Z AUTO 00000KT 10SM CLR 22/20 A3003 RMK A01